Terminal Aerodrome Forecast
Issued by NWS Sterling, VA

Current Version | Previous Version | Graphics & Text | Print | Product List | Glossary Off
Versions: 1 2 3 4 5 6 7 8 9 10 11 12 13 14 15 16 17 18 19 20 21 22 23

142
FTUS41 KLWX 292320
TAFDCA
TAF
KDCA 292320Z 3000/3024 19006KT P6SM SCT050 SCT250
     FM301400 14005KT P6SM BKN045
     FM301500 14006KT P6SM SHRA BKN045
     FM301800 14006KT P6SM SHRA VCTS BKN040CB
     FM302300 14006KT P6SM SHRA VCTS OVC030CB=

USA.gov is the U.S. government's official web portal to all federal, state and local government web resources and services.